createdAt,value
2018-05-09T00:00:05.645Z,0
2018-05-09T00:01:06.999Z,0
2018-05-09T00:02:08.385Z,0
2018-05-09T00:03:09.751Z,0
2018-05-09T00:04:11.097Z,0
2018-05-09T00:05:12.458Z,0
2018-05-09T00:06:13.814Z,0
2018-05-09T00:07:15.180Z,0
2018-05-09T00:08:16.537Z,0
2018-05-09T00:09:17.900Z,0
2018-05-09T00:10:19.259Z,0
2018-05-09T00:11:20.622Z,0
2018-05-09T00:12:21.971Z,0
2018-05-09T00:13:23.336Z,0
2018-05-09T00:14:24.689Z,0
2018-05-09T00:15:26.052Z,0
2018-05-09T00:16:27.417Z,0
2018-05-09T00:17:28.779Z,0
2018-05-09T00:18:30.127Z,0
2018-05-09T00:19:31.491Z,0
2018-05-09T00:20:32.854Z,0
2018-05-09T00:21:34.227Z,0
2018-05-09T00:22:35.600Z,0
2018-05-09T00:23:36.963Z,0
2018-05-09T00:24:38.332Z,0
2018-05-09T00:25:39.721Z,0
2018-05-09T00:26:41.083Z,0
2018-05-09T00:27:42.443Z,0
2018-05-09T00:28:43.805Z,0
2018-05-09T00:29:45.174Z,0
2018-05-09T00:30:47.347Z,0
2018-05-09T00:31:48.709Z,0
2018-05-09T00:32:50.068Z,0
2018-05-09T00:33:51.426Z,0
2018-05-09T00:34:52.794Z,0
2018-05-09T00:35:54.155Z,0
2018-05-09T00:36:55.507Z,0
2018-05-09T00:37:56.867Z,0
2018-05-09T00:38:58.221Z,0
2018-05-09T00:39:59.575Z,0
2018-05-09T00:41:00.940Z,0
2018-05-09T00:42:02.304Z,0
2018-05-09T00:43:03.671Z,0
2018-05-09T00:44:05.030Z,0
2018-05-09T00:45:06.389Z,0
2018-05-09T00:46:07.752Z,0
2018-05-09T00:47:09.110Z,0
2018-05-09T00:48:10.478Z,0
2018-05-09T00:49:11.838Z,0
2018-05-09T00:50:13.223Z,0
2018-05-09T00:51:14.562Z,0
2018-05-09T00:52:15.937Z,0
2018-05-09T00:53:17.306Z,0
2018-05-09T00:54:18.655Z,0
2018-05-09T00:55:20.026Z,0
2018-05-09T00:56:21.387Z,0
2018-05-09T00:57:22.751Z,0
2018-05-09T00:58:24.107Z,0
2018-05-09T00:59:25.473Z,0
2018-05-09T01:00:26.830Z,0
2018-05-09T01:01:28.191Z,0
2018-05-09T01:02:29.546Z,0
2018-05-09T01:03:30.906Z,0
2018-05-09T01:04:32.268Z,0
2018-05-09T01:05:33.626Z,0
2018-05-09T01:06:34.984Z,0
2018-05-09T01:07:36.373Z,0
2018-05-09T01:08:37.726Z,0
2018-05-09T01:09:39.078Z,0
2018-05-09T01:10:40.437Z,0
2018-05-09T01:11:41.800Z,0
2018-05-09T01:12:43.159Z,0
2018-05-09T01:13:44.521Z,0
2018-05-09T01:14:45.887Z,0
2018-05-09T01:15:47.248Z,0
2018-05-09T01:16:48.617Z,0
2018-05-09T01:17:49.968Z,0
2018-05-09T01:18:51.335Z,0
2018-05-09T01:19:52.701Z,0
2018-05-09T01:20:54.070Z,0
2018-05-09T01:21:55.440Z,0
2018-05-09T01:22:56.791Z,0
2018-05-09T01:23:58.147Z,0
2018-05-09T01:24:59.504Z,0
2018-05-09T01:26:00.866Z,0
2018-05-09T01:27:02.235Z,0
2018-05-09T01:28:03.621Z,0
2018-05-09T01:29:04.979Z,0
2018-05-09T01:30:06.338Z,0
2018-05-09T01:31:07.702Z,0
2018-05-09T01:32:09.062Z,0
2018-05-09T01:33:10.417Z,0
2018-05-09T01:34:11.778Z,0
2018-05-09T01:35:13.133Z,0
2018-05-09T01:36:14.490Z,0
2018-05-09T01:37:15.852Z,0
2018-05-09T01:38:17.213Z,0
2018-05-09T01:39:18.570Z,0
2018-05-09T01:40:19.929Z,0
2018-05-09T01:41:21.308Z,0
2018-05-09T01:42:22.655Z,0
2018-05-09T01:43:24.013Z,0
2018-05-09T01:44:25.375Z,0
2018-05-09T01:45:26.740Z,0
2018-05-09T01:46:28.121Z,0
2018-05-09T01:47:29.472Z,0
2018-05-09T01:48:30.845Z,0
2018-05-09T01:49:32.205Z,0
2018-05-09T01:50:33.579Z,0
2018-05-09T01:51:34.935Z,0
2018-05-09T01:52:36.291Z,0
2018-05-09T01:53:37.654Z,0
2018-05-09T01:54:39.009Z,0
2018-05-09T01:55:40.373Z,0
2018-05-09T01:56:41.731Z,0
2018-05-09T01:57:43.113Z,0
2018-05-09T01:58:44.479Z,0
2018-05-09T01:59:45.837Z,0
2018-05-09T02:00:47.188Z,0
2018-05-09T02:01:48.547Z,0
2018-05-09T02:03:01.094Z,0
2018-05-09T02:04:02.458Z,0
2018-05-09T02:05:03.827Z,0
2018-05-09T02:06:05.289Z,0
2018-05-09T02:07:06.502Z,0
2018-05-09T02:08:07.863Z,0
2018-05-09T02:09:09.216Z,0
2018-05-09T02:10:10.575Z,0
2018-05-09T02:11:11.948Z,0
2018-05-09T02:12:13.315Z,0
2018-05-09T02:13:14.678Z,0
2018-05-09T02:14:16.039Z,0
2018-05-09T02:15:17.395Z,0
2018-05-09T02:16:18.753Z,0
2018-05-09T02:17:20.109Z,0
2018-05-09T02:18:21.466Z,0
2018-05-09T02:19:22.827Z,0
2018-05-09T02:20:24.176Z,0
2018-05-09T02:21:25.533Z,0
2018-05-09T02:22:26.896Z,0
2018-05-09T02:23:28.256Z,0
2018-05-09T02:24:29.614Z,0
2018-05-09T02:25:30.984Z,0
2018-05-09T02:26:32.340Z,0
2018-05-09T02:27:33.690Z,0
2018-05-09T02:28:35.052Z,0
2018-05-09T02:29:36.416Z,0
2018-05-09T02:30:37.779Z,0
2018-05-09T02:31:39.140Z,0
2018-05-09T02:32:40.492Z,0
2018-05-09T02:33:41.862Z,0
2018-05-09T02:34:43.234Z,0
2018-05-09T02:35:44.597Z,0
2018-05-09T02:36:45.952Z,0
2018-05-09T02:37:47.316Z,0
2018-05-09T02:38:48.677Z,0
2018-05-09T02:39:50.039Z,0
2018-05-09T02:40:51.406Z,0
2018-05-09T02:41:52.757Z,0
2018-05-09T02:42:54.123Z,0
2018-05-09T02:43:55.479Z,0
2018-05-09T02:44:56.842Z,0
2018-05-09T02:45:58.197Z,0
2018-05-09T02:46:59.556Z,0
2018-05-09T02:48:00.875Z,0
2018-05-09T02:49:02.245Z,0
2018-05-09T02:50:03.674Z,0
2018-05-09T02:51:04.924Z,0
2018-05-09T02:52:06.281Z,0
2018-05-09T02:53:07.644Z,0
2018-05-09T02:54:08.994Z,0
2018-05-09T02:55:10.357Z,0
2018-05-09T02:56:11.709Z,0
2018-05-09T02:57:13.061Z,0
2018-05-09T02:58:14.423Z,0
2018-05-09T02:59:15.788Z,0
2018-05-09T03:00:17.144Z,0
2018-05-09T03:01:18.508Z,0
2018-05-09T03:02:19.859Z,0
2018-05-09T03:03:21.242Z,0
2018-05-09T03:04:22.601Z,0
2018-05-09T03:05:23.978Z,0
2018-05-09T03:06:25.331Z,0
2018-05-09T03:07:26.683Z,0
2018-05-09T03:08:28.053Z,0
2018-05-09T03:09:29.409Z,0
2018-05-09T03:10:30.755Z,0
2018-05-09T03:11:32.139Z,0
2018-05-09T03:12:33.499Z,4
2018-05-09T03:13:34.866Z,4
2018-05-09T03:14:36.215Z,0
2018-05-09T03:15:37.581Z,4
2018-05-09T03:16:38.933Z,4
2018-05-09T03:17:40.294Z,4
2018-05-09T03:18:41.654Z,4
2018-05-09T03:19:43.011Z,4
2018-05-09T03:20:44.369Z,8
2018-05-09T03:21:45.727Z,8
2018-05-09T03:22:47.098Z,12
2018-05-09T03:23:48.458Z,12
2018-05-09T03:24:49.812Z,16
2018-05-09T03:25:51.180Z,16
2018-05-09T03:26:52.528Z,20
2018-05-09T03:27:53.889Z,28
2018-05-09T03:28:55.250Z,28
2018-05-09T03:29:56.600Z,36
2018-05-09T03:30:57.962Z,40
2018-05-09T03:31:59.318Z,48
2018-05-09T03:33:00.671Z,56
2018-05-09T03:34:02.047Z,64
2018-05-09T03:35:03.405Z,76
2018-05-09T03:36:04.770Z,84
2018-05-09T03:37:06.134Z,96
2018-05-09T03:38:07.489Z,108
2018-05-09T03:39:08.910Z,124
2018-05-09T03:40:10.202Z,136
2018-05-09T03:41:11.568Z,156
2018-05-09T03:42:12.927Z,176
2018-05-09T03:43:14.242Z,196
2018-05-09T03:44:15.599Z,220
2018-05-09T03:45:16.997Z,244
2018-05-09T03:46:18.352Z,272
2018-05-09T03:47:19.709Z,304
2018-05-09T03:48:21.075Z,328
2018-05-09T03:49:22.441Z,360
2018-05-09T03:50:23.796Z,396
2018-05-09T03:51:25.159Z,424
2018-05-09T03:52:26.511Z,460
2018-05-09T03:53:27.875Z,496
2018-05-09T03:54:29.235Z,536
2018-05-09T03:55:30.590Z,572
2018-05-09T03:56:31.956Z,612
2018-05-09T03:57:33.332Z,656
2018-05-09T03:58:34.700Z,692
2018-05-09T03:59:36.061Z,732
2018-05-09T04:00:37.421Z,772
2018-05-09T04:01:38.779Z,816
2018-05-09T04:02:40.141Z,864
2018-05-09T04:03:41.504Z,912
2018-05-09T04:04:42.861Z,964
2018-05-09T04:05:44.222Z,1016
2018-05-09T04:06:45.579Z,1072
2018-05-09T04:07:46.948Z,1124
2018-05-09T04:08:48.314Z,1180
2018-05-09T04:09:49.675Z,1232
2018-05-09T04:10:51.039Z,1288
2018-05-09T04:11:52.408Z,1344
2018-05-09T04:12:53.770Z,1408
2018-05-09T04:13:55.137Z,1476
2018-05-09T04:14:56.546Z,1548
2018-05-09T04:15:57.810Z,1632
2018-05-09T04:16:59.168Z,1716
2018-05-09T04:18:00.533Z,1804
2018-05-09T04:19:01.894Z,1880
2018-05-09T04:20:03.257Z,1960
2018-05-09T04:21:04.617Z,2044
2018-05-09T04:22:05.972Z,2128
2018-05-09T04:23:07.329Z,2200
2018-05-09T04:24:08.692Z,2268
2018-05-09T04:25:10.054Z,2328
2018-05-09T04:26:11.420Z,2388
2018-05-09T04:27:12.780Z,2452
2018-05-09T04:28:14.161Z,2520
2018-05-09T04:29:15.503Z,2584
2018-05-09T04:30:16.868Z,2652
2018-05-09T04:31:18.234Z,2744
2018-05-09T04:32:19.597Z,2852
2018-05-09T04:33:20.968Z,2964
2018-05-09T04:34:22.324Z,3072
2018-05-09T04:35:23.688Z,3168
2018-05-09T04:36:25.046Z,3252
2018-05-09T04:37:26.407Z,3308
2018-05-09T04:38:27.774Z,3348
2018-05-09T04:39:29.141Z,3368
2018-05-09T04:40:30.508Z,3384
2018-05-09T04:41:31.895Z,3404
2018-05-09T04:42:33.252Z,3440
2018-05-09T04:43:34.619Z,3472
2018-05-09T04:44:35.981Z,3524
2018-05-09T04:45:37.343Z,3592
2018-05-09T04:46:38.711Z,3664
2018-05-09T04:47:40.077Z,3736
2018-05-09T04:48:41.441Z,3816
2018-05-09T04:49:42.804Z,3896
2018-05-09T04:50:44.159Z,3988
2018-05-09T04:51:45.525Z,4096
2018-05-09T04:52:46.887Z,4212
2018-05-09T04:53:48.254Z,4328
2018-05-09T04:54:49.615Z,4440
2018-05-09T04:55:50.986Z,4548
2018-05-09T04:56:52.341Z,4656
2018-05-09T04:57:53.703Z,4756
2018-05-09T04:58:55.062Z,4840
2018-05-09T04:59:56.421Z,4928
2018-05-09T05:00:57.789Z,5008
2018-05-09T05:01:59.155Z,5080
2018-05-09T05:03:00.516Z,5152
2018-05-09T05:04:01.887Z,5224
2018-05-09T05:05:03.242Z,5292
2018-05-09T05:06:04.610Z,5340
2018-05-09T05:07:06.060Z,5404
2018-05-09T05:08:07.298Z,5460
2018-05-09T05:09:08.664Z,5508
2018-05-09T05:10:10.036Z,5560
2018-05-09T05:11:11.391Z,5616
2018-05-09T05:12:12.757Z,5668
2018-05-09T05:13:14.121Z,5728
2018-05-09T05:14:15.483Z,5784
2018-05-09T05:15:16.864Z,5832
2018-05-09T05:16:18.231Z,5896
2018-05-09T05:17:19.589Z,5948
2018-05-09T05:18:20.953Z,5988
2018-05-09T05:19:22.316Z,6016
2018-05-09T05:20:23.681Z,6044
2018-05-09T05:21:25.041Z,6052
2018-05-09T05:22:26.405Z,6040
2018-05-09T05:23:27.768Z,6020
2018-05-09T05:24:29.142Z,5984
2018-05-09T05:25:30.506Z,6000
2018-05-09T05:26:31.870Z,6024
2018-05-09T05:27:33.228Z,6072
2018-05-09T05:28:34.592Z,6160
2018-05-09T05:29:35.955Z,6280
2018-05-09T05:30:37.319Z,6372
2018-05-09T05:31:38.684Z,6476
2018-05-09T05:32:40.115Z,6612
2018-05-09T05:33:41.417Z,6736
2018-05-09T05:34:42.777Z,6864
2018-05-09T05:35:44.139Z,6960
2018-05-09T05:36:45.506Z,7012
2018-05-09T05:37:46.872Z,6984
2018-05-09T05:38:48.320Z,6932
2018-05-09T05:39:49.612Z,6896
2018-05-09T05:40:50.977Z,6840
2018-05-09T05:41:52.346Z,6828
2018-05-09T05:42:53.698Z,6904
2018-05-09T05:43:55.067Z,7080
2018-05-09T05:44:56.467Z,7252
2018-05-09T05:45:57.834Z,7540
2018-05-09T05:46:59.200Z,7876
2018-05-09T05:48:00.560Z,8292
2018-05-09T05:49:01.931Z,8696
2018-05-09T05:50:03.288Z,9032
2018-05-09T05:51:04.684Z,9224
2018-05-09T05:52:06.055Z,9484
2018-05-09T05:53:07.458Z,9688
2018-05-09T05:54:08.831Z,10076
2018-05-09T05:55:10.197Z,10984
2018-05-09T05:56:11.615Z,11676
2018-05-09T05:57:12.924Z,12604
2018-05-09T05:58:14.291Z,12928
2018-05-09T05:59:15.661Z,13276
2018-05-09T06:00:17.025Z,13392
2018-05-09T06:01:18.401Z,12856
2018-05-09T06:02:19.755Z,12840
2018-05-09T06:03:21.139Z,12324
2018-05-09T06:04:22.493Z,12488
2018-05-09T06:05:23.858Z,12516
2018-05-09T06:06:25.254Z,12640
2018-05-09T06:07:26.634Z,12672
2018-05-09T06:08:28.117Z,13428
2018-05-09T06:09:29.493Z,14032
2018-05-09T06:10:30.849Z,14196
2018-05-09T06:11:32.220Z,15336
2018-05-09T06:12:33.594Z,16768
2018-05-09T06:13:34.960Z,18304
2018-05-09T06:14:36.327Z,19648
2018-05-09T06:15:37.716Z,19456
2018-05-09T06:16:39.091Z,20160
2018-05-09T06:17:40.459Z,19616
2018-05-09T06:18:41.833Z,21824
2018-05-09T06:19:43.200Z,22560
2018-05-09T06:20:44.575Z,24480
2018-05-09T06:21:45.951Z,25568
2018-05-09T06:22:47.321Z,25664
2018-05-09T06:23:48.823Z,26336
2018-05-09T06:24:50.191Z,28608
2018-05-09T06:25:51.568Z,33536
2018-05-09T06:26:52.934Z,39296
2018-05-09T06:27:54.308Z,38016
2018-05-09T06:28:55.689Z,34528
2018-05-09T06:29:57.066Z,35552
2018-05-09T06:30:58.449Z,37472
2018-05-09T06:31:59.807Z,38880
2018-05-09T06:33:01.181Z,40704
2018-05-09T06:34:02.555Z,44288
2018-05-09T06:35:03.920Z,43776
2018-05-09T06:36:05.288Z,42592
2018-05-09T06:37:06.662Z,45312
2018-05-09T06:38:08.046Z,51168
2018-05-09T06:39:09.447Z,56832
2018-05-09T06:40:10.824Z,59680
2018-05-09T06:41:12.315Z,63328
2018-05-09T06:42:13.706Z,69600
2018-05-09T06:43:15.087Z,72224
2018-05-09T06:44:16.509Z,69536
2018-05-09T06:45:17.855Z,67328
2018-05-09T06:46:19.224Z,68416
2018-05-09T06:47:20.595Z,67232
2018-05-09T06:48:21.968Z,65472
2018-05-09T06:49:23.354Z,64480
2018-05-09T06:50:24.735Z,59456
2018-05-09T06:51:26.119Z,56768
2018-05-09T06:52:27.492Z,54880
2018-05-09T06:53:28.879Z,52384
2018-05-09T06:54:30.255Z,45920
2018-05-09T06:55:31.631Z,42720
2018-05-09T06:56:33.029Z,47872
2018-05-09T06:57:34.406Z,48608
2018-05-09T06:58:35.784Z,44512
2018-05-09T06:59:37.170Z,45632
2018-05-09T07:00:38.555Z,49408
2018-05-09T07:01:39.937Z,49088
2018-05-09T07:02:41.311Z,44384
2018-05-09T07:03:42.686Z,40896
2018-05-09T07:04:44.117Z,40672
2018-05-09T07:05:45.446Z,41664
2018-05-09T07:06:47.978Z,41632
2018-05-09T07:07:49.086Z,38976
2018-05-09T07:08:50.467Z,39648
2018-05-09T07:09:51.843Z,40800
2018-05-09T07:10:53.250Z,41408
2018-05-09T07:11:54.636Z,42400
2018-05-09T07:12:56.052Z,43296
2018-05-09T07:13:57.426Z,41536
2018-05-09T07:14:58.805Z,39840
2018-05-09T07:16:00.195Z,40896
2018-05-09T07:17:01.565Z,41536
2018-05-09T07:18:02.970Z,40992
2018-05-09T07:19:04.349Z,40672
2018-05-09T07:20:05.729Z,42080
2018-05-09T07:21:07.128Z,43744
2018-05-09T07:22:08.534Z,45120
2018-05-09T07:23:09.915Z,45312
2018-05-09T07:24:11.271Z,47104
2018-05-09T07:25:12.646Z,50272
2018-05-09T07:26:14.022Z,52864
2018-05-09T07:27:15.395Z,51616
2018-05-09T07:28:16.774Z,53664
2018-05-09T07:29:18.157Z,58560
2018-05-09T07:30:19.548Z,56128
2018-05-09T07:31:20.929Z,52704
2018-05-09T07:32:22.303Z,50976
2018-05-09T07:33:23.686Z,51776
2018-05-09T07:34:25.070Z,54368
2018-05-09T07:35:26.638Z,60352
2018-05-09T07:36:27.910Z,70208
2018-05-09T07:37:29.307Z,70592
2018-05-09T07:38:30.686Z,61856
2018-05-09T07:39:32.062Z,54080
2018-05-09T07:40:33.513Z,46752
2018-05-09T07:41:34.861Z,42592
2018-05-09T07:42:36.265Z,41472
2018-05-09T07:43:37.640Z,40160
2018-05-09T07:44:39.016Z,38208
2018-05-09T07:45:40.399Z,36832
2018-05-09T07:46:41.782Z,36160
2018-05-09T07:47:43.208Z,35744
2018-05-09T07:48:44.584Z,35680
2018-05-09T07:49:45.964Z,34272
2018-05-09T07:50:47.343Z,33184
2018-05-09T07:51:48.729Z,35808
2018-05-09T07:52:50.115Z,36096
2018-05-09T07:53:51.499Z,36064
2018-05-09T07:54:52.888Z,35648
2018-05-09T07:55:54.264Z,34720
2018-05-09T07:56:55.619Z,35392
2018-05-09T07:57:57.002Z,34912
2018-05-09T07:58:58.380Z,32256
2018-05-09T07:59:59.776Z,33632
2018-05-09T08:01:01.147Z,35072
2018-05-09T08:02:02.534Z,36096
2018-05-09T08:03:03.922Z,35680
2018-05-09T08:04:05.333Z,36544
2018-05-09T08:05:06.731Z,34784
2018-05-09T08:06:08.317Z,37216
2018-05-09T08:07:09.563Z,37600
2018-05-09T08:08:10.959Z,38144
2018-05-09T08:09:12.325Z,37632
2018-05-09T08:10:13.722Z,38048
2018-05-09T08:11:15.102Z,38080
2018-05-09T08:12:16.511Z,38336
2018-05-09T08:13:17.929Z,38304
2018-05-09T08:14:19.302Z,38368
2018-05-09T08:15:20.683Z,38304
2018-05-09T08:16:22.089Z,38368
2018-05-09T08:17:23.465Z,38400
2018-05-09T08:18:24.846Z,38272
2018-05-09T08:19:26.222Z,38304
2018-05-09T08:20:27.683Z,38240
2018-05-09T08:21:29.066Z,38304
2018-05-09T08:22:30.456Z,38496
2018-05-09T08:23:31.834Z,38720
2018-05-09T08:24:33.213Z,39936
2018-05-09T08:25:34.614Z,48192
2018-05-09T08:26:36.009Z,69568
2018-05-09T08:27:37.408Z,89600
2018-05-09T08:28:38.787Z,98208
2018-05-09T08:29:40.177Z,98368
2018-05-09T08:30:41.562Z,97120
2018-05-09T08:31:42.935Z,98144
2018-05-09T08:32:44.339Z,101344
2018-05-09T08:33:45.718Z,100896
2018-05-09T08:34:47.096Z,98912
2018-05-09T08:35:48.473Z,97216
2018-05-09T08:36:49.863Z,96608
2018-05-09T08:37:51.247Z,97472
2018-05-09T08:38:52.645Z,97344
2018-05-09T08:39:54.031Z,98336
2018-05-09T08:40:55.424Z,99616
2018-05-09T08:41:56.821Z,94368
2018-05-09T08:42:58.196Z,83968
2018-05-09T08:43:59.638Z,72864
2018-05-09T08:45:00.994Z,94688
2018-05-09T08:46:02.372Z,96736
2018-05-09T08:47:03.747Z,98848
2018-05-09T08:48:05.128Z,96000
2018-05-09T08:49:06.540Z,87616
2018-05-09T08:50:07.926Z,72544
2018-05-09T08:51:09.320Z,73728
2018-05-09T08:52:10.720Z,74240
2018-05-09T08:53:12.116Z,80832
2018-05-09T08:54:13.531Z,85728
2018-05-09T08:55:14.993Z,74496
2018-05-09T08:56:16.381Z,70656
2018-05-09T08:57:17.761Z,61056
2018-05-09T08:58:19.137Z,60448
2018-05-09T08:59:20.528Z,56000
2018-05-09T09:00:21.912Z,65184
2018-05-09T09:01:23.303Z,76544
2018-05-09T09:02:24.681Z,39456
2018-05-09T09:03:26.058Z,39680
2018-05-09T09:04:27.497Z,49056
2018-05-09T09:05:28.820Z,39680
2018-05-09T09:06:30.514Z,65920
2018-05-09T09:07:31.989Z,82848
2018-05-09T09:08:33.371Z,99456
2018-05-09T09:09:34.754Z,95360
2018-05-09T09:10:36.180Z,95648
2018-05-09T09:11:37.562Z,97280
2018-05-09T09:12:38.941Z,98592
2018-05-09T09:13:40.314Z,96160
2018-05-09T09:14:41.696Z,91520
2018-05-09T09:15:43.171Z,90304
2018-05-09T09:16:44.457Z,93984
2018-05-09T09:17:45.860Z,97664
2018-05-09T09:18:47.241Z,98432
2018-05-09T09:19:48.621Z,98816
2018-05-09T09:20:50.058Z,88576
2018-05-09T09:21:51.409Z,83872
2018-05-09T09:22:52.792Z,96256
2018-05-09T09:23:54.176Z,51136
2018-05-09T09:24:55.681Z,40096
2018-05-09T09:25:57.059Z,39136
2018-05-09T09:26:58.467Z,41312
2018-05-09T09:27:59.851Z,46528
2018-05-09T09:29:01.317Z,68736
2018-05-09T09:30:02.627Z,64000
2018-05-09T09:31:04.005Z,100672
2018-05-09T09:32:05.424Z,115872
2018-05-09T09:33:06.809Z,93984
2018-05-09T09:34:08.186Z,82368
2018-05-09T09:35:09.565Z,98112
2018-05-09T09:36:10.951Z,109856
2018-05-09T09:37:12.359Z,102048
2018-05-09T09:38:13.743Z,99776
2018-05-09T09:39:15.118Z,103136
2018-05-09T09:40:16.541Z,108384
2018-05-09T09:41:17.926Z,110432
2018-05-09T09:42:19.316Z,84320
2018-05-09T09:43:20.722Z,94592
2018-05-09T09:44:22.121Z,113088
2018-05-09T09:45:23.503Z,59008
2018-05-09T09:46:24.893Z,51648
2018-05-09T09:47:26.280Z,43264
2018-05-09T09:48:27.662Z,34848
2018-05-09T09:49:29.048Z,29600
2018-05-09T09:50:30.438Z,31488
2018-05-09T09:51:31.996Z,29632
2018-05-09T09:52:33.377Z,26752
2018-05-09T09:53:34.764Z,26400
2018-05-09T09:54:36.143Z,30336
2018-05-09T09:55:37.522Z,27520
2018-05-09T09:56:38.912Z,26944
2018-05-09T09:57:40.296Z,38336
2018-05-09T09:58:41.672Z,58784
2018-05-09T09:59:43.060Z,91392
2018-05-09T10:00:44.445Z,64224
2018-05-09T10:01:45.841Z,58240
2018-05-09T10:02:47.237Z,70432
2018-05-09T10:03:48.627Z,78016
2018-05-09T10:04:50.018Z,81760
2018-05-09T10:05:51.379Z,97728
2018-05-09T10:06:52.763Z,103232
2018-05-09T10:07:54.155Z,105280
2018-05-09T10:08:55.541Z,105216
2018-05-09T10:09:56.938Z,105984
2018-05-09T10:10:58.314Z,108896
2018-05-09T10:11:59.692Z,108608
2018-05-09T10:13:01.073Z,107168
2018-05-09T10:14:02.459Z,106688
2018-05-09T10:15:03.845Z,106688
2018-05-09T10:16:06.001Z,107904
2018-05-09T10:17:07.377Z,109632
2018-05-09T10:18:08.790Z,111680
2018-05-09T10:19:10.206Z,114144
2018-05-09T10:20:11.570Z,120800
2018-05-09T10:21:12.959Z,124864
2018-05-09T10:22:14.351Z,124800
2018-05-09T10:23:15.740Z,123584
2018-05-09T10:24:17.127Z,126304
2018-05-09T10:25:18.527Z,128032
2018-05-09T10:26:19.904Z,129440
2018-05-09T10:27:21.288Z,128896
2018-05-09T10:28:22.695Z,124544
2018-05-09T10:29:24.101Z,119040
2018-05-09T10:30:25.504Z,120896
2018-05-09T10:31:26.928Z,125952
2018-05-09T10:32:28.290Z,133536
2018-05-09T10:33:29.680Z,139872
2018-05-09T10:34:31.057Z,142208
2018-05-09T10:35:32.445Z,134208
2018-05-09T10:36:33.874Z,131680
2018-05-09T10:37:35.338Z,31616
2018-05-09T10:38:36.619Z,32864
2018-05-09T10:39:38.007Z,41056
2018-05-09T10:40:39.395Z,87776
2018-05-09T10:41:40.776Z,135648
2018-05-09T10:42:42.175Z,48192
2018-05-09T10:43:43.568Z,32864
2018-05-09T10:44:44.954Z,28832
2018-05-09T10:45:46.331Z,27072
2018-05-09T10:46:47.769Z,25216
2018-05-09T10:47:49.145Z,23296
2018-05-09T10:48:50.549Z,21536
2018-05-09T10:49:51.927Z,20192
2018-05-09T10:50:53.370Z,19008
2018-05-09T10:51:54.656Z,18272
2018-05-09T10:52:56.067Z,17440
2018-05-09T10:53:57.457Z,16932
2018-05-09T10:54:58.831Z,16632
2018-05-09T10:56:00.233Z,16764
2018-05-09T10:57:01.616Z,17100
2018-05-09T10:58:03.113Z,18272
2018-05-09T10:59:04.494Z,19872
2018-05-09T11:00:05.875Z,22656
2018-05-09T11:01:07.256Z,26784
2018-05-09T11:02:08.645Z,140448
2018-05-09T11:03:10.022Z,137376
2018-05-09T11:04:11.401Z,136000
2018-05-09T11:05:12.836Z,136032
2018-05-09T11:06:14.133Z,129216
2018-05-09T11:07:15.506Z,67936
2018-05-09T11:08:16.888Z,33984
2018-05-09T11:09:18.278Z,25856
2018-05-09T11:10:19.660Z,25504
2018-05-09T11:11:21.080Z,25792
2018-05-09T11:12:22.540Z,26592
2018-05-09T11:13:23.936Z,27520
2018-05-09T11:14:25.313Z,29824
2018-05-09T11:15:26.708Z,136736
2018-05-09T11:16:28.085Z,134624
2018-05-09T11:17:29.483Z,132640
2018-05-09T11:18:30.872Z,131648
2018-05-09T11:19:32.257Z,129920
2018-05-09T11:20:33.683Z,130560
2018-05-09T11:21:35.066Z,133696
2018-05-09T11:22:38.181Z,116960
2018-05-09T11:23:39.560Z,45344
2018-05-09T11:24:40.959Z,102528
2018-05-09T11:25:42.286Z,122336
2018-05-09T11:26:46.509Z,116896
2018-05-09T11:27:47.918Z,126112
2018-05-09T11:28:49.308Z,119936
2018-05-09T11:29:50.712Z,124576
2018-05-09T11:30:52.093Z,40128
2018-05-09T11:31:53.478Z,39232
2018-05-09T11:32:54.863Z,42624
2018-05-09T11:33:56.258Z,134976
2018-05-09T11:34:57.652Z,125952
2018-05-09T11:35:59.035Z,71488
2018-05-09T11:37:00.417Z,50272
2018-05-09T11:38:01.804Z,126752
2018-05-09T11:39:03.283Z,37472
2018-05-09T11:40:04.674Z,36096
2018-05-09T11:41:06.070Z,36608
2018-05-09T11:42:07.445Z,39136
2018-05-09T11:43:08.844Z,41504
2018-05-09T11:44:10.297Z,42112
2018-05-09T11:45:11.645Z,46720
2018-05-09T11:46:13.021Z,130400
2018-05-09T11:47:14.403Z,127392
2018-05-09T11:48:15.797Z,126112
2018-05-09T11:49:17.193Z,120128
2018-05-09T11:50:18.579Z,42208
2018-05-09T11:51:19.955Z,122016
2018-05-09T11:52:21.345Z,121088
2018-05-09T11:53:22.729Z,113152
2018-05-09T11:54:24.124Z,117728
2018-05-09T11:55:25.515Z,83360
2018-05-09T11:56:26.903Z,120512
2018-05-09T11:57:28.301Z,116384
2018-05-09T11:58:29.684Z,117984
2018-05-09T11:59:31.081Z,117152
2018-05-09T12:00:32.587Z,113728
2018-05-09T12:01:33.969Z,111456
2018-05-09T12:02:36.913Z,109888
2018-05-09T12:03:38.299Z,111072
2018-05-09T12:04:39.919Z,110176
2018-05-09T12:05:41.311Z,109184
2018-05-09T12:06:42.706Z,108800
2018-05-09T12:07:44.095Z,104832
2018-05-09T12:08:45.483Z,103520
2018-05-09T12:09:46.870Z,105216
2018-05-09T12:10:48.337Z,107744
2018-05-09T12:11:49.687Z,109408
2018-05-09T12:12:51.076Z,111680
2018-05-09T12:13:52.463Z,112896
2018-05-09T12:14:53.843Z,114656
2018-05-09T12:15:55.233Z,114656
2018-05-09T12:16:56.625Z,113664
2018-05-09T12:17:58.007Z,112384
2018-05-09T12:18:59.407Z,110336
2018-05-09T12:20:00.801Z,35008
2018-05-09T12:21:02.190Z,65472
2018-05-09T12:22:03.607Z,44512
2018-05-09T12:23:04.998Z,31808
2018-05-09T12:24:06.379Z,30720
2018-05-09T12:25:07.799Z,27680
2018-05-09T12:26:09.203Z,24832
2018-05-09T12:27:10.593Z,23264
2018-05-09T12:28:12.791Z,22944
2018-05-09T12:29:14.175Z,23936
2018-05-09T12:30:15.552Z,24448
2018-05-09T12:31:16.945Z,61152
2018-05-09T12:32:18.333Z,33248
2018-05-09T12:33:19.709Z,40448
2018-05-09T12:34:21.107Z,46528
2018-05-09T12:35:22.478Z,32768
2018-05-09T12:36:23.903Z,35072
2018-05-09T12:37:25.246Z,107776
2018-05-09T12:38:26.642Z,107584
2018-05-09T12:39:28.031Z,106752
2018-05-09T12:40:29.405Z,104832
2018-05-09T12:41:30.799Z,106592
2018-05-09T12:42:32.338Z,108736
2018-05-09T12:43:33.567Z,108480
2018-05-09T12:44:34.965Z,106688
2018-05-09T12:45:36.361Z,102240
2018-05-09T12:46:37.749Z,102560
2018-05-09T12:47:39.153Z,104576
2018-05-09T12:48:40.646Z,107936
2018-05-09T12:49:41.900Z,111872
2018-05-09T12:50:43.283Z,117376
2018-05-09T12:51:44.684Z,64096
2018-05-09T12:52:46.065Z,39872
2018-05-09T12:53:47.462Z,35520
2018-05-09T12:54:48.843Z,38720
2018-05-09T12:55:50.225Z,62688
2018-05-09T12:56:51.611Z,34048
2018-05-09T12:57:53.011Z,36992
2018-05-09T12:58:54.395Z,35552
2018-05-09T12:59:55.782Z,34752
2018-05-09T13:00:57.172Z,33280
2018-05-09T13:01:58.562Z,31968
2018-05-09T13:02:59.949Z,30880
2018-05-09T13:04:01.332Z,29984
2018-05-09T13:05:03.283Z,29856
2018-05-09T13:06:04.668Z,30624
2018-05-09T13:07:06.195Z,31840
2018-05-09T13:08:07.595Z,31744
2018-05-09T13:09:09.177Z,102880
2018-05-09T13:10:10.564Z,71424
2018-05-09T13:11:11.953Z,22432
2018-05-09T13:12:13.325Z,19104
2018-05-09T13:13:14.791Z,17376
2018-05-09T13:14:16.112Z,16440
2018-05-09T13:15:17.548Z,16056
2018-05-09T13:16:18.927Z,17152
2018-05-09T13:17:20.302Z,18336
2018-05-09T13:18:21.695Z,86784
2018-05-09T13:19:23.215Z,86528
2018-05-09T13:20:24.603Z,92640
2018-05-09T13:21:25.989Z,98592
2018-05-09T13:22:27.365Z,99872
2018-05-09T13:23:28.748Z,100864
2018-05-09T13:24:30.155Z,100768
2018-05-09T13:25:31.534Z,98528
2018-05-09T13:26:32.919Z,97248
2018-05-09T13:27:34.309Z,97056
2018-05-09T13:28:35.704Z,98208
2018-05-09T13:29:37.084Z,97888
2018-05-09T13:30:38.457Z,96896
2018-05-09T13:31:39.897Z,94624
2018-05-09T13:32:41.213Z,93760
2018-05-09T13:33:42.600Z,92736
2018-05-09T13:34:43.976Z,92352
2018-05-09T13:35:45.361Z,95616
2018-05-09T13:36:46.738Z,96512
2018-05-09T13:37:48.122Z,94400
2018-05-09T13:38:49.521Z,91424
2018-05-09T13:39:50.928Z,86336